TimeEDT,TemperatureF,Dew PointF,Humidity,Sea Level PressureIn,VisibilityMPH,Wind Direction,Wind SpeedMPH,Gust SpeedMPH,PrecipitationIn,Events,Conditions,WindDirDegrees,DateUTC
12:53 AM,52.0,43.0,71,30.22,10.0,SE,9.2,-,N/A,,Clear,130,2013-10-09 04:53:00
1:53 AM,50.0,42.1,74,30.23,10.0,SE,8.1,-,N/A,,Clear,140,2013-10-09 05:53:00
2:53 AM,46.0,41.0,83,30.24,10.0,East,5.8,-,N/A,,Clear,90,2013-10-09 06:53:00
3:53 AM,46.0,41.0,83,30.23,10.0,ESE,4.6,-,N/A,,Clear,110,2013-10-09 07:53:00
4:53 AM,46.0,41.0,83,30.24,10.0,ESE,4.6,-,N/A,,Clear,110,2013-10-09 08:53:00
5:53 AM,45.0,41.0,86,30.25,10.0,East,3.5,-,N/A,,Clear,90,2013-10-09 09:53:00
6:53 AM,44.1,41.0,89,30.27,10.0,Calm,Calm,-,N/A,,Clear,0,2013-10-09 10:53:00
7:53 AM,42.1,39.9,92,30.28,10.0,Calm,Calm,-,N/A,,Clear,0,2013-10-09 11:53:00
8:53 AM,46.9,44.1,90,30.29,8.0,Calm,Calm,-,N/A,,Clear,0,2013-10-09 12:53:00
9:53 AM,55.0,46.9,74,30.29,10.0,ESE,3.5,-,N/A,,Clear,110,2013-10-09 13:53:00
10:53 AM,62.1,48.0,60,30.29,10.0,East,3.5,-,N/A,,Clear,80,2013-10-09 14:53:00
11:53 AM,64.9,46.0,50,30.28,10.0,SE,5.8,-,N/A,,Clear,130,2013-10-09 15:53:00
12:53 PM,66.9,46.9,49,30.27,10.0,East,8.1,-,N/A,,Clear,90,2013-10-09 16:53:00
1:53 PM,70.0,45.0,41,30.24,10.0,ESE,10.4,-,N/A,,Clear,120,2013-10-09 17:53:00
2:53 PM,71.1,45.0,39,30.22,10.0,East,5.8,-,N/A,,Clear,90,2013-10-09 18:53:00
4:53 PM,72.0,45.0,38,30.19,10.0,ESE,5.8,-,N/A,,Clear,120,2013-10-09 20:53:00
5:53 PM,71.1,45.0,39,30.19,10.0,SE,6.9,-,N/A,,Clear,140,2013-10-09 21:53:00
6:53 PM,64.9,45.0,48,30.19,10.0,South,3.5,-,N/A,,Clear,170,2013-10-09 22:53:00
7:53 PM,55.0,46.0,72,30.19,10.0,SE,3.5,-,N/A,,Clear,130,2013-10-09 23:53:00
8:53 PM,55.0,45.0,69,30.20,10.0,East,4.6,-,N/A,,Clear,90,2013-10-10 00:53:00
9:53 PM,54.0,44.1,69,30.19,10.0,East,8.1,-,N/A,,Clear,100,2013-10-10 01:53:00
10:53 PM,54.0,43.0,66,30.20,10.0,ESE,6.9,-,N/A,,Clear,120,2013-10-10 02:53:00
11:53 PM,51.1,43.0,74,30.19,10.0,ESE,4.6,-,N/A,,Clear,110,2013-10-10 03:53:00